Time;durP1;ratioP1;P1;durP2;ratioP2;P2;SDS_P1;SDS_P2;PMS_P1;PMS_P2;Temp;Humidity;BMP_temperature;BMP_pressure;BME280_temperature;BME280_humidity;BME280_pressure;Samples;Min_cycle;Max_cycle;Signal;HPM_P1;HPM_P2
2021/05/26 00:03:26;;;;;;;2.60;0.87;;;;;;;;;;10518851;28;20288;-72
2021/05/26 00:08:29;;;;;;;0.97;0.70;;;;;;;;;;10517640;28;20214;-72
2021/05/26 00:13:31;;;;;;;2.93;0.80;;;;;;;;;;10512175;28;20299;-72
2021/05/26 00:18:34;;;;;;;1.10;0.60;;;;;;;;;;10524155;28;20283;-71
2021/05/26 00:23:37;;;;;;;1.43;0.60;;;;;;;;;;10523523;28;20235;-71
2021/05/26 00:28:42;;;;;;;1.83;0.70;;;;;;;;;;10524909;28;20200;-71
2021/05/26 00:33:45;;;;;;;2.10;0.87;;;;;;;;;;10516885;28;20670;-70
2021/05/26 00:38:48;;;;;;;4.13;1.00;;;;;;;;;;10523087;28;20233;-72
2021/05/26 00:43:50;;;;;;;2.47;0.90;;;;;;;;;;10523562;28;20230;-71
2021/05/26 00:48:53;;;;;;;4.40;1.07;;;;;;;;;;10525134;28;20704;-73
2021/05/26 00:53:56;;;;;;;2.10;0.87;;;;;;;;;;10529073;28;20219;-72
2021/05/26 00:58:58;;;;;;;1.37;0.70;;;;;;;;;;10523153;28;20559;-70
2021/05/26 01:04:01;;;;;;;1.70;0.50;;;;;;;;;;10523092;28;20235;-71
2021/05/26 01:09:03;;;;;;;1.73;0.70;;;;;;;;;;10524062;28;20204;-70
2021/05/26 01:14:05;;;;;;;1.30;0.80;;;;;;;;;;10527978;28;20564;-70
2021/05/26 01:19:08;;;;;;;3.53;1.00;;;;;;;;;;10530220;28;20188;-70
2021/05/26 01:24:12;;;;;;;1.67;0.80;;;;;;;;;;10520504;28;20586;-70
2021/05/26 01:29:14;;;;;;;3.87;0.97;;;;;;;;;;10526806;28;20227;-70
2021/05/26 01:34:16;;;;;;;2.67;1.00;;;;;;;;;;10527878;28;20268;-70
2021/05/26 01:39:20;;;;;;;2.33;0.90;;;;;;;;;;10527307;28;20274;-70
2021/05/26 01:44:24;;;;;;;1.90;0.87;;;;;;;;;;10522363;28;20226;-70
2021/05/26 01:49:26;;;;;;;3.50;1.07;;;;;;;;;;10532578;28;20192;-69
2021/05/26 01:54:29;;;;;;;2.27;0.50;;;;;;;;;;10531372;28;20239;-71
2021/05/26 01:59:31;;;;;;;3.13;0.80;;;;;;;;;;10532607;28;20215;-71
2021/05/26 02:04:34;;;;;;;3.33;0.90;;;;;;;;;;10538728;28;20656;-72
2021/05/26 02:09:37;;;;;;;2.10;0.83;;;;;;;;;;10522798;28;20219;-72
2021/05/26 02:14:40;;;;;;;3.57;0.93;;;;;;;;;;10522499;28;20572;-70
2021/05/26 02:19:42;;;;;;;3.13;0.80;;;;;;;;;;10531625;28;20196;-71
2021/05/26 02:24:46;;;;;;;3.03;1.10;;;;;;;;;;10526940;28;20525;-70
2021/05/26 02:29:48;;;;;;;1.70;0.90;;;;;;;;;;10532673;28;20212;-70
2021/05/26 02:34:50;;;;;;;2.30;0.70;;;;;;;;;;10529677;28;20268;-72
2021/05/26 02:39:53;;;;;;;2.73;0.80;;;;;;;;;;10523292;28;20192;-71
2021/05/26 02:44:55;;;;;;;1.40;0.67;;;;;;;;;;10542716;28;20634;-71
2021/05/26 02:49:58;;;;;;;0.87;0.60;;;;;;;;;;10532367;28;20240;-71
2021/05/26 02:55:02;;;;;;;4.90;0.83;;;;;;;;;;10530011;28;20281;-70
2021/05/26 03:00:04;;;;;;;2.53;1.00;;;;;;;;;;10534355;28;21463;-71
2021/05/26 03:05:07;;;;;;;1.90;0.90;;;;;;;;;;10538114;28;20218;-70
2021/05/26 03:10:11;;;;;;;3.40;1.10;;;;;;;;;;10521216;28;20338;-71
2021/05/26 03:15:15;;;;;;;3.20;1.00;;;;;;;;;;10516319;28;20613;-71
2021/05/26 03:20:17;;;;;;;2.50;1.00;;;;;;;;;;10523911;28;20218;-71
2021/05/26 03:25:21;;;;;;;2.40;0.97;;;;;;;;;;10535349;28;20211;-71
2021/05/26 03:30:23;;;;;;;3.33;0.90;;;;;;;;;;10523996;28;20239;-71
2021/05/26 03:35:26;;;;;;;2.67;0.87;;;;;;;;;;10517630;28;20219;-70
2021/05/26 03:40:29;;;;;;;2.50;0.90;;;;;;;;;;10527684;28;20216;-72
2021/05/26 03:45:35;;;;;;;2.10;1.10;;;;;;;;;;10538336;28;20219;-73
2021/05/26 03:50:38;;;;;;;2.10;0.83;;;;;;;;;;10532115;27;20223;-70
2021/05/26 03:55:41;;;;;;;3.33;0.90;;;;;;;;;;10523568;28;20219;-71
2021/05/26 04:00:43;;;;;;;1.00;0.50;;;;;;;;;;10530813;28;20251;-70
2021/05/26 04:05:45;;;;;;;1.00;0.70;;;;;;;;;;10527724;28;20222;-70
2021/05/26 04:10:48;;;;;;;2.13;0.90;;;;;;;;;;10525049;28;20693;-68
2021/05/26 04:15:52;;;;;;;5.47;1.00;;;;;;;;;;10522196;28;20195;-71
2021/05/26 04:21:15;;;;;;;2.93;0.97;;;;;;;;;;10518150;28;20216;-71
2021/05/26 04:26:38;;;;;;;3.90;1.10;;;;;;;;;;10525077;28;20302;-71
2021/05/26 04:32:00;;;;;;;2.17;0.80;;;;;;;;;;10524715;28;20231;-71
2021/05/26 04:37:22;;;;;;;3.00;0.93;;;;;;;;;;10527304;28;20253;-70
2021/05/26 04:42:45;;;;;;;2.90;1.00;;;;;;;;;;10525075;28;20233;-71
2021/05/26 04:48:07;;;;;;;3.83;1.23;;;;;;;;;;10535124;28;20229;-70
2021/05/26 04:53:29;;;;;;;2.77;1.07;;;;;;;;;;10528859;28;20254;-71
2021/05/26 04:58:53;;;;;;;2.13;0.90;;;;;;;;;;10538163;28;20198;-72
2021/05/26 05:04:15;;;;;;;2.70;0.80;;;;;;;;;;10532007;28;21330;-71
2021/05/26 05:09:37;;;;;;;3.00;0.87;;;;;;;;;;10528883;28;20200;-72
2021/05/26 05:14:59;;;;;;;2.13;0.90;;;;;;;;;;10528744;28;20211;-72
2021/05/26 05:20:08;;;;;;;1.97;0.90;;;;;;;;;;10537206;28;20210;-69
2021/05/26 05:25:10;;;;;;;2.80;1.00;;;;;;;;;;10530934;28;20218;-72
2021/05/26 05:30:14;;;;;;;1.97;0.90;;;;;;;;;;10544714;28;20302;-71
2021/05/26 05:35:16;;;;;;;3.33;1.10;;;;;;;;;;10534345;28;20286;-69
2021/05/26 05:40:18;;;;;;;1.43;0.80;;;;;;;;;;10529079;28;20195;-71
2021/05/26 05:45:21;;;;;;;2.90;1.03;;;;;;;;;;10523071;28;20208;-70
2021/05/26 05:50:23;;;;;;;4.90;1.20;;;;;;;;;;10523565;28;20211;-69
2021/05/26 05:55:25;;;;;;;4.23;1.20;;;;;;;;;;10524493;28;20246;-69
2021/05/26 06:00:28;;;;;;;3.63;0.87;;;;;;;;;;10522222;28;20180;-71
2021/05/26 06:05:30;;;;;;;4.37;1.17;;;;;;;;;;10532011;28;20554;-72
2021/05/26 06:10:33;;;;;;;2.60;1.00;;;;;;;;;;10525921;28;20222;-73
2021/05/26 06:15:35;;;;;;;2.03;0.70;;;;;;;;;;10528302;28;20218;-72
2021/05/26 06:20:37;;;;;;;3.60;0.97;;;;;;;;;;10524968;28;20549;-71
2021/05/26 06:25:40;;;;;;;1.90;0.70;;;;;;;;;;10528016;28;20216;-71
2021/05/26 06:30:43;;;;;;;5.67;1.20;;;;;;;;;;10525109;28;20207;-70
2021/05/26 06:35:45;;;;;;;2.30;1.00;;;;;;;;;;10523620;28;20216;-71
2021/05/26 06:40:47;;;;;;;1.10;0.53;;;;;;;;;;10524137;28;20332;-71
2021/05/26 06:45:50;;;;;;;1.20;0.67;;;;;;;;;;10515475;28;20299;-70
2021/05/26 06:50:52;;;;;;;1.97;1.00;;;;;;;;;;10527583;28;20690;-72
2021/05/26 06:55:54;;;;;;;3.73;0.90;;;;;;;;;;10522231;28;20199;-71
2021/05/26 07:00:57;;;;;;;3.27;0.80;;;;;;;;;;10520883;28;20663;-71
2021/05/26 07:05:59;;;;;;;1.63;0.80;;;;;;;;;;10519591;28;20207;-70
2021/05/26 07:11:05;;;;;;;3.77;0.80;;;;;;;;;;10516650;28;20703;-70
2021/05/26 07:16:08;;;;;;;1.20;0.70;;;;;;;;;;10526208;28;20263;-71
2021/05/26 07:21:10;;;;;;;1.37;0.70;;;;;;;;;;10519418;28;20322;-71
2021/05/26 07:26:12;;;;;;;2.93;0.80;;;;;;;;;;10511775;28;20670;-70
2021/05/26 07:31:15;;;;;;;1.20;0.77;;;;;;;;;;10497642;28;20224;-72
2021/05/26 07:36:17;;;;;;;1.57;0.83;;;;;;;;;;10516511;28;20210;-71
2021/05/26 07:41:19;;;;;;;1.30;0.70;;;;;;;;;;10505106;28;20757;-70
2021/05/26 07:46:22;;;;;;;2.30;1.10;;;;;;;;;;10521092;28;20270;-70
2021/05/26 07:51:28;;;;;;;1.60;0.87;;;;;;;;;;10510537;28;20288;-70
2021/05/26 07:56:30;;;;;;;2.67;1.00;;;;;;;;;;10517299;28;20275;-71
2021/05/26 08:01:33;;;;;;;2.23;0.90;;;;;;;;;;10525653;28;20807;-70
2021/05/26 08:06:35;;;;;;;2.07;0.80;;;;;;;;;;10526265;28;20256;-70
2021/05/26 08:11:37;;;;;;;3.10;0.90;;;;;;;;;;10529342;28;20294;-71
2021/05/26 08:16:40;;;;;;;2.33;0.80;;;;;;;;;;10519504;28;20268;-70
2021/05/26 08:21:42;;;;;;;2.83;0.97;;;;;;;;;;10519943;28;20203;-69
2021/05/26 08:26:50;;;;;;;0.73;0.53;;;;;;;;;;10516951;28;20196;-70
2021/05/26 08:31:57;;;;;;;2.53;0.90;;;;;;;;;;10524257;28;20306;-71
2021/05/26 08:36:59;;;;;;;2.43;0.97;;;;;;;;;;10517379;28;20200;-71
2021/05/26 08:42:02;;;;;;;1.00;0.50;;;;;;;;;;10501193;28;20208;-71
2021/05/26 08:47:06;;;;;;;2.10;1.00;;;;;;;;;;10514259;28;20192;-71
2021/05/26 08:52:08;;;;;;;3.23;0.87;;;;;;;;;;10524612;28;20299;-72
2021/05/26 08:57:10;;;;;;;3.00;1.00;;;;;;;;;;10504284;28;20198;-69
2021/05/26 09:02:13;;;;;;;3.63;1.17;;;;;;;;;;10502301;28;20212;-70
2021/05/26 09:07:16;;;;;;;2.53;1.00;;;;;;;;;;10510869;28;20187;-71
2021/05/26 09:12:29;;;;;;;1.83;0.80;;;;;;;;;;10507079;28;20702;-71
2021/05/26 09:17:32;;;;;;;2.47;0.93;;;;;;;;;;10516804;28;20195;-71
2021/05/26 09:22:34;;;;;;;4.00;1.37;;;;;;;;;;10518020;28;20217;-71
2021/05/26 09:27:37;;;;;;;2.10;0.90;;;;;;;;;;10522553;28;20774;-71
2021/05/26 09:32:40;;;;;;;1.30;0.93;;;;;;;;;;10515831;28;20308;-71
2021/05/26 09:37:43;;;;;;;5.33;1.10;;;;;;;;;;10526273;28;20652;-72
2021/05/26 09:42:46;;;;;;;1.27;0.90;;;;;;;;;;10500080;28;20781;-71
2021/05/26 09:47:51;;;;;;;2.60;1.13;;;;;;;;;;10502347;28;20215;-71
2021/05/26 09:53:03;;;;;;;3.60;1.00;;;;;;;;;;10499655;28;20722;-70
2021/05/26 09:58:08;;;;;;;4.33;1.20;;;;;;;;;;10506553;28;20249;-71
2021/05/26 10:03:11;;;;;;;2.03;1.00;;;;;;;;;;10502701;28;20214;-71
2021/05/26 10:08:14;;;;;;;3.60;1.20;;;;;;;;;;10504842;28;20214;-70
2021/05/26 10:13:18;;;;;;;3.97;1.30;;;;;;;;;;10506037;28;20251;-71
2021/05/26 10:18:22;;;;;;;2.15;1.02;;;;;;;;;;10506822;28;20200;-72
2021/05/26 10:23:25;;;;;;;3.05;1.02;;;;;;;;;;10502362;28;20228;-71
2021/05/26 10:28:27;;;;;;;1.48;0.90;;;;;;;;;;10509636;28;20817;-71
2021/05/26 10:33:48;;;;;;;4.63;1.20;;;;;;;;;;10516169;28;20204;-71
2021/05/26 10:38:55;;;;;;;3.77;1.30;;;;;;;;;;10508302;28;20266;-71
2021/05/26 10:43:57;;;;;;;2.93;1.10;;;;;;;;;;10504699;28;20322;-71
2021/05/26 10:48:59;;;;;;;2.73;1.10;;;;;;;;;;10509005;28;20775;-72
2021/05/26 10:54:03;;;;;;;4.13;1.33;;;;;;;;;;10497983;28;20695;-72
2021/05/26 10:59:11;;;;;;;4.77;1.40;;;;;;;;;;10510157;28;20288;-71
2021/05/26 11:04:19;;;;;;;2.87;1.17;;;;;;;;;;10495448;28;20207;-70
2021/05/26 11:09:42;;;;;;;3.57;1.43;;;;;;;;;;10508405;28;20203;-70
2021/05/26 11:14:44;;;;;;;1.33;1.00;;;;;;;;;;10520970;28;20211;-70
2021/05/26 11:19:46;;;;;;;5.23;1.40;;;;;;;;;;10505899;28;20693;-70
2021/05/26 11:24:52;;;;;;;2.90;1.20;;;;;;;;;;10507033;28;20246;-70
2021/05/26 11:30:05;;;;;;;4.03;1.37;;;;;;;;;;10512775;28;20195;-70
2021/05/26 11:35:09;;;;;;;2.13;1.07;;;;;;;;;;10531361;28;20212;-71
2021/05/26 11:40:22;;;;;;;1.87;0.97;;;;;;;;;;10522592;28;20562;-72
2021/05/26 11:45:24;;;;;;;2.63;1.23;;;;;;;;;;10523257;28;20219;-71
2021/05/26 11:50:28;;;;;;;2.93;0.80;;;;;;;;;;10522961;28;20192;-71
2021/05/26 11:55:30;;;;;;;1.60;0.70;;;;;;;;;;10521919;28;20237;-71
2021/05/26 12:00:35;;;;;;;3.90;1.00;;;;;;;;;;10531308;28;20275;-71
2021/05/26 12:05:38;;;;;;;3.70;0.90;;;;;;;;;;10524339;28;20223;-71
2021/05/26 12:10:41;;;;;;;2.60;1.00;;;;;;;;;;10513987;28;20310;-71
2021/05/26 12:15:43;;;;;;;1.23;0.83;;;;;;;;;;10506163;28;20274;-70
2021/05/26 12:20:46;;;;;;;3.17;1.00;;;;;;;;;;10521441;28;20217;-71
2021/05/26 12:25:49;;;;;;;3.37;1.20;;;;;;;;;;10522995;28;20265;-71
2021/05/26 12:30:51;;;;;;;1.90;1.13;;;;;;;;;;10522972;28;20248;-72
2021/05/26 12:36:01;;;;;;;3.03;1.10;;;;;;;;;;10513532;28;20224;-70
2021/05/26 12:41:20;;;;;;;1.60;1.05;;;;;;;;;;10516040;28;20219;-70
2021/05/26 12:46:42;;;;;;;3.10;1.30;;;;;;;;;;10530094;28;20218;-70
2021/05/26 12:51:44;;;;;;;2.75;1.40;;;;;;;;;;10515003;28;20590;-70
2021/05/26 12:56:48;;;;;;;3.95;1.55;;;;;;;;;;10514235;28;20227;-71
2021/05/26 13:02:03;;;;;;;3.17;1.30;;;;;;;;;;10518520;28;20211;-71
2021/05/26 13:07:21;;;;;;;1.67;1.17;;;;;;;;;;10521442;28;20248;-70
2021/05/26 13:12:26;;;;;;;3.90;1.70;;;;;;;;;;10525822;28;20306;-71
2021/05/26 13:17:29;;;;;;;4.80;1.60;;;;;;;;;;10527140;28;20196;-70
2021/05/26 13:22:31;;;;;;;5.10;1.90;;;;;;;;;;10515974;28;20239;-70
2021/05/26 13:27:34;;;;;;;5.55;2.15;;;;;;;;;;10519962;28;20203;-71
2021/05/26 13:32:36;;;;;;;5.47;1.77;;;;;;;;;;10512671;28;20267;-70
2021/05/26 13:37:40;;;;;;;4.55;2.00;;;;;;;;;;10525451;28;20200;-70
2021/05/26 13:42:43;;;;;;;7.53;3.08;;;;;;;;;;10516615;28;20215;-70
2021/05/26 13:47:46;;;;;;;4.38;1.75;;;;;;;;;;10511088;28;20200;-71
2021/05/26 13:52:48;;;;;;;6.35;2.45;;;;;;;;;;10529639;28;20246;-69
2021/05/26 13:57:52;;;;;;;4.55;1.88;;;;;;;;;;10531190;28;20207;-70
2021/05/26 14:02:55;;;;;;;4.53;1.80;;;;;;;;;;10523233;28;20300;-71
2021/05/26 14:07:57;;;;;;;4.38;1.80;;;;;;;;;;10505824;28;20208;-69
2021/05/26 14:13:01;;;;;;;5.72;2.10;;;;;;;;;;10539645;28;20796;-71
2021/05/26 14:18:05;;;;;;;7.07;1.90;;;;;;;;;;10527790;28;20572;-71
2021/05/26 14:23:27;;;;;;;5.37;1.67;;;;;;;;;;10525408;28;20205;-70
2021/05/26 14:28:30;;;;;;;4.87;1.80;;;;;;;;;;10524579;28;20225;-70
2021/05/26 14:33:37;;;;;;;7.73;2.30;;;;;;;;;;10514584;28;20273;-70
2021/05/26 14:38:44;;;;;;;4.20;1.70;;;;;;;;;;10521488;28;20199;-73
2021/05/26 14:43:47;;;;;;;5.23;2.00;;;;;;;;;;10525002;28;20229;-71
2021/05/26 14:48:50;;;;;;;4.50;1.77;;;;;;;;;;10524332;28;20515;-69
2021/05/26 14:53:52;;;;;;;5.33;1.90;;;;;;;;;;10523427;28;20219;-72
2021/05/26 14:58:55;;;;;;;4.60;1.80;;;;;;;;;;10524913;28;20223;-68
2021/05/26 15:03:59;;;;;;;5.13;1.80;;;;;;;;;;10529069;28;20638;-69
2021/05/26 15:09:01;;;;;;;5.43;1.90;;;;;;;;;;10519423;28;20218;-70
2021/05/26 15:14:07;;;;;;;6.30;2.10;;;;;;;;;;10519186;28;20263;-70
2021/05/26 15:19:10;;;;;;;5.70;2.07;;;;;;;;;;10520452;28;20628;-70
2021/05/26 15:24:12;;;;;;;5.50;1.83;;;;;;;;;;10521136;28;20254;-70
2021/05/26 15:29:15;;;;;;;7.53;3.30;;;;;;;;;;10524764;28;20203;-69
2021/05/26 15:34:17;;;;;;;5.27;1.80;;;;;;;;;;10521899;28;20582;-70
2021/05/26 15:39:19;;;;;;;6.80;2.10;;;;;;;;;;10526257;28;20214;-69
2021/05/26 15:44:22;;;;;;;6.87;2.90;;;;;;;;;;10526707;28;20212;-70
2021/05/26 15:49:24;;;;;;;7.20;2.30;;;;;;;;;;10515470;28;20199;-70
2021/05/26 15:54:28;;;;;;;8.80;2.83;;;;;;;;;;10528335;28;20565;-70
2021/05/26 15:59:31;;;;;;;7.13;2.33;;;;;;;;;;10523476;28;20192;-69
2021/05/26 16:04:33;;;;;;;5.97;2.30;;;;;;;;;;10519763;28;20218;-69
2021/05/26 16:09:35;;;;;;;8.23;2.20;;;;;;;;;;10522081;28;20257;-72
2021/05/26 16:14:38;;;;;;;7.70;2.30;;;;;;;;;;10517863;28;20251;-69
2021/05/26 16:19:40;;;;;;;5.87;2.37;;;;;;;;;;10514227;28;20195;-69
2021/05/26 16:24:42;;;;;;;9.37;3.00;;;;;;;;;;10517386;28;20223;-70
2021/05/26 16:29:46;;;;;;;3.53;1.60;;;;;;;;;;10514246;28;20203;-71
2021/05/26 16:34:48;;;;;;;6.33;2.57;;;;;;;;;;10517663;28;20306;-69
2021/05/26 16:39:50;;;;;;;6.43;2.80;;;;;;;;;;10521954;28;20192;-71
2021/05/26 16:44:54;;;;;;;5.77;2.20;;;;;;;;;;10505925;28;20227;-70
2021/05/26 16:49:56;;;;;;;9.60;4.20;;;;;;;;;;10503199;28;20235;-71
2021/05/26 16:54:58;;;;;;;8.33;3.10;;;;;;;;;;10520929;28;20199;-71
2021/05/26 17:00:01;;;;;;;6.50;2.77;;;;;;;;;;10518846;28;20283;-72
2021/05/26 17:05:05;;;;;;;6.73;2.43;;;;;;;;;;10516533;28;20295;-72
2021/05/26 17:10:08;;;;;;;8.13;2.63;;;;;;;;;;10518173;28;20226;-72
2021/05/26 17:15:12;;;;;;;7.73;2.33;;;;;;;;;;10521141;28;20735;-70
2021/05/26 17:20:16;;;;;;;4.83;2.00;;;;;;;;;;10517612;28;20188;-70
2021/05/26 17:25:18;;;;;;;7.90;2.53;;;;;;;;;;10509870;28;20265;-70
2021/05/26 17:30:29;;;;;;;6.23;1.93;;;;;;;;;;10513931;28;20207;-72
2021/05/26 17:35:32;;;;;;;2.97;1.20;;;;;;;;;;10523168;28;20220;-70
2021/05/26 17:40:37;;;;;;;7.17;2.00;;;;;;;;;;10525153;28;20207;-72
2021/05/26 17:45:41;;;;;;;2.40;1.10;;;;;;;;;;10522444;28;22445;-73
2021/05/26 17:50:43;;;;;;;5.57;1.80;;;;;;;;;;10528780;28;20192;-69
2021/05/26 17:55:46;;;;;;;3.27;1.40;;;;;;;;;;10533681;28;20287;-71
2021/05/26 18:00:49;;;;;;;3.93;1.50;;;;;;;;;;10533538;28;20188;-71
2021/05/26 18:05:51;;;;;;;4.27;1.60;;;;;;;;;;10529357;28;20210;-70
2021/05/26 18:10:53;;;;;;;3.90;1.93;;;;;;;;;;10529351;28;20204;-72
2021/05/26 18:15:57;;;;;;;5.53;1.60;;;;;;;;;;10529472;28;20679;-72
2021/05/26 18:20:59;;;;;;;4.10;1.53;;;;;;;;;;10532038;28;20215;-70
2021/05/26 18:26:02;;;;;;;5.17;1.53;;;;;;;;;;10529895;28;20184;-71
2021/05/26 18:31:04;;;;;;;3.97;1.50;;;;;;;;;;10530868;28;20204;-70
2021/05/26 18:36:08;;;;;;;5.60;1.90;;;;;;;;;;10534867;28;20227;-72
2021/05/26 18:41:12;;;;;;;6.33;1.97;;;;;;;;;;10536690;28;20192;-71
2021/05/26 18:46:15;;;;;;;6.40;1.80;;;;;;;;;;10531882;28;20188;-71
2021/05/26 18:51:18;;;;;;;5.33;1.77;;;;;;;;;;10533371;28;20204;-71
2021/05/26 18:56:20;;;;;;;5.37;1.70;;;;;;;;;;10529725;28;20200;-70
2021/05/26 19:01:23;;;;;;;5.63;2.10;;;;;;;;;;10522184;28;20265;-72
2021/05/26 19:06:25;;;;;;;6.80;2.80;;;;;;;;;;10526085;28;20187;-71
2021/05/26 19:11:27;;;;;;;4.73;1.50;;;;;;;;;;10528106;28;20227;-71
2021/05/26 19:16:31;;;;;;;3.77;1.50;;;;;;;;;;10526676;28;20207;-73
2021/05/26 19:21:35;;;;;;;4.27;1.53;;;;;;;;;;10519582;28;20298;-70
2021/05/26 19:26:37;;;;;;;4.17;1.30;;;;;;;;;;10516760;28;20191;-70
2021/05/26 19:31:40;;;;;;;4.40;1.70;;;;;;;;;;10507030;28;20255;-70
2021/05/26 19:36:42;;;;;;;3.83;1.30;;;;;;;;;;10502589;28;20415;-71
2021/05/26 19:41:45;;;;;;;4.87;1.57;;;;;;;;;;10509900;28;20712;-71
2021/05/26 19:46:48;;;;;;;3.90;1.40;;;;;;;;;;10518682;28;20740;-72
2021/05/26 19:51:50;;;;;;;5.03;1.40;;;;;;;;;;10500703;28;20211;-70
2021/05/26 19:56:52;;;;;;;3.30;1.20;;;;;;;;;;10510896;28;20212;-71
2021/05/26 20:01:56;;;;;;;2.83;1.10;;;;;;;;;;10506593;28;20959;-70
2021/05/26 20:07:00;;;;;;;2.47;1.27;;;;;;;;;;10503467;28;20196;-70
2021/05/26 20:12:02;;;;;;;3.57;1.20;;;;;;;;;;10503829;28;20831;-71
2021/05/26 20:17:05;;;;;;;3.47;1.33;;;;;;;;;;10521289;28;20215;-69
2021/05/26 20:22:07;;;;;;;2.40;1.20;;;;;;;;;;10518918;28;20288;-70
2021/05/26 20:27:09;;;;;;;2.00;1.20;;;;;;;;;;10523274;28;20183;-71
2021/05/26 20:32:13;;;;;;;3.30;1.23;;;;;;;;;;10525900;28;20252;-71
2021/05/26 20:37:15;;;;;;;3.63;1.13;;;;;;;;;;10523730;28;20273;-72
2021/05/26 20:42:17;;;;;;;1.37;0.97;;;;;;;;;;10521166;28;20370;-73
2021/05/26 20:47:25;;;;;;;2.87;1.03;;;;;;;;;;10519948;28;20211;-72
2021/05/26 20:52:27;;;;;;;2.60;0.80;;;;;;;;;;10518999;28;20235;-69
2021/05/26 20:57:29;;;;;;;1.07;0.70;;;;;;;;;;10525549;28;20195;-70
2021/05/26 21:02:32;;;;;;;1.90;1.00;;;;;;;;;;10523680;28;20222;-71
2021/05/26 21:07:34;;;;;;;1.87;1.00;;;;;;;;;;10512113;28;20200;-70
2021/05/26 21:12:38;;;;;;;1.10;0.90;;;;;;;;;;10522655;28;20714;-70
2021/05/26 21:17:41;;;;;;;2.13;0.87;;;;;;;;;;10520385;28;20216;-72
2021/05/26 21:22:44;;;;;;;3.17;1.27;;;;;;;;;;10527533;28;20243;-71
2021/05/26 21:27:46;;;;;;;1.87;1.10;;;;;;;;;;10530844;28;20200;-71
2021/05/26 21:32:50;;;;;;;2.00;1.00;;;;;;;;;;10529791;28;20219;-71
2021/05/26 21:37:54;;;;;;;2.30;1.20;;;;;;;;;;10532326;28;20213;-71
2021/05/26 21:42:57;;;;;;;2.07;1.00;;;;;;;;;;10521581;28;20215;-70
2021/05/26 21:48:01;;;;;;;2.20;1.07;;;;;;;;;;10535450;28;20187;-69
2021/05/26 21:53:03;;;;;;;1.33;1.00;;;;;;;;;;10537424;28;20243;-70
2021/05/26 21:58:06;;;;;;;2.43;0.93;;;;;;;;;;10530254;28;20208;-70
2021/05/26 22:03:09;;;;;;;3.47;1.30;;;;;;;;;;10536022;28;20215;-71
2021/05/26 22:08:13;;;;;;;2.53;1.10;;;;;;;;;;10532622;28;20298;-70
2021/05/26 22:13:19;;;;;;;1.97;0.93;;;;;;;;;;10531807;28;20219;-71
2021/05/26 22:18:23;;;;;;;2.60;1.20;;;;;;;;;;10528770;28;20209;-72
2021/05/26 22:23:27;;;;;;;1.93;1.00;;;;;;;;;;10541583;28;20663;-71
2021/05/26 22:28:31;;;;;;;2.70;1.10;;;;;;;;;;10525655;28;20187;-70
2021/05/26 22:33:35;;;;;;;1.97;1.10;;;;;;;;;;10529670;28;20211;-71
2021/05/26 22:38:38;;;;;;;3.23;1.30;;;;;;;;;;10525945;28;20299;-72
2021/05/26 22:43:42;;;;;;;2.33;1.00;;;;;;;;;;10527107;28;20218;-71
2021/05/26 22:48:45;;;;;;;2.37;1.13;;;;;;;;;;10524420;28;20192;-73
2021/05/26 22:53:48;;;;;;;1.80;1.10;;;;;;;;;;10528944;28;20243;-71
2021/05/26 22:58:51;;;;;;;1.13;0.87;;;;;;;;;;10526549;28;20286;-70
2021/05/26 23:03:54;;;;;;;1.97;1.00;;;;;;;;;;10528928;28;20257;-71
2021/05/26 23:08:57;;;;;;;2.33;1.10;;;;;;;;;;10525638;28;20279;-71
2021/05/26 23:14:00;;;;;;;1.40;1.07;;;;;;;;;;10528229;28;20215;-73
2021/05/26 23:19:03;;;;;;;1.43;1.00;;;;;;;;;;10525853;28;20614;-71
2021/05/26 23:24:06;;;;;;;2.53;1.20;;;;;;;;;;10525684;28;20571;-71
2021/05/26 23:29:13;;;;;;;3.77;1.10;;;;;;;;;;10530031;28;20214;-71
2021/05/26 23:34:16;;;;;;;2.50;1.10;;;;;;;;;;10544154;27;20746;-70
2021/05/26 23:39:19;;;;;;;3.30;1.30;;;;;;;;;;10533563;28;20291;-70
2021/05/26 23:44:22;;;;;;;1.60;1.10;;;;;;;;;;10522195;28;20235;-68
2021/05/26 23:49:25;;;;;;;3.47;1.30;;;;;;;;;;10524121;28;20198;-71
2021/05/26 23:54:28;;;;;;;3.70;1.27;;;;;;;;;;10525588;28;20267;-71
2021/05/26 23:59:30;;;;;;;1.97;1.20;;;;;;;;;;10531445;28;20650;-70
